Time;durP1;ratioP1;P1;durP2;ratioP2;P2;SDS_P1;SDS_P2;PMS_P1;PMS_P2;Temp;Humidity;BMP_temperature;BMP_pressure;BME280_temperature;BME280_humidity;BME280_pressure;Samples;Min_cycle;Max_cycle;Signal;HPM_P1;HPM_P2
2022/08/19 00:01:58;;;;;;;12.30;8.50;;;;;;;24.44;61.77;100048.75;104059;1285;141343;-78
2022/08/19 00:04:36;;;;;;;12.80;8.80;;;;;;;24.43;61.99;100048.70;104172;1283;95272;-77
2022/08/19 00:07:06;;;;;;;12.20;9.10;;;;;;;24.45;61.95;100047.21;104130;1284;139523;-78
2022/08/19 00:09:34;;;;;;;12.90;8.90;;;;;;;24.47;61.66;100046.09;104513;1284;110239;-78
2022/08/19 00:12:02;;;;;;;12.20;8.50;;;;;;;24.45;61.82;100048.29;104145;1283;139392;-77
2022/08/19 00:14:31;;;;;;;11.40;8.20;;;;;;;24.42;61.98;100048.55;104122;1282;108449;-77
2022/08/19 00:17:00;;;;;;;11.40;9.10;;;;;;;24.41;61.97;100042.83;104077;1284;95239;-77
2022/08/19 00:19:29;;;;;;;12.00;9.30;;;;;;;24.41;61.91;100042.09;104040;1284;142204;-77
2022/08/19 00:21:56;;;;;;;12.30;8.80;;;;;;;24.37;62.08;100046.64;104122;1283;111451;-78
2022/08/19 00:24:25;;;;;;;12.70;8.90;;;;;;;24.32;62.07;100047.97;104062;1283;139122;-77
2022/08/19 00:26:53;;;;;;;13.30;9.00;;;;;;;24.31;62.10;100045.95;104123;1284;109389;-79
2022/08/19 00:29:22;;;;;;;14.10;9.40;;;;;;;24.26;62.51;100046.59;104196;1284;95030;-78
2022/08/19 00:31:54;;;;;;;13.40;10.10;;;;;;;24.17;62.55;100043.70;104163;1284;139997;-77
2022/08/19 00:34:23;;;;;;;14.00;9.20;;;;;;;24.07;62.87;100041.70;104195;1285;110157;-77
2022/08/19 00:36:51;;;;;;;11.10;8.80;;;;;;;24.03;62.97;100042.73;103966;1284;141301;-76
2022/08/19 00:39:19;;;;;;;13.50;9.00;;;;;;;24.01;63.08;100040.73;104042;1284;109656;-77
2022/08/19 00:41:50;;;;;;;14.50;9.40;;;;;;;23.97;63.04;100038.04;103984;1284;141150;-77
2022/08/19 00:44:25;;;;;;;15.10;10.10;;;;;;;23.95;63.50;100044.40;104118;1284;95704;-77
2022/08/19 00:46:58;;;;;;;11.60;9.00;;;;;;;23.84;63.58;100046.95;104124;1284;108703;-78
2022/08/19 00:49:55;;;;;;;12.40;8.60;;;;;;;23.79;63.63;100045.43;104137;1284;139974;-76
2022/08/19 00:52:28;;;;;;;12.60;8.70;;;;;;;23.75;63.94;100038.34;104119;1283;109332;-77
2022/08/19 00:54:58;;;;;;;13.30;9.00;;;;;;;23.70;64.06;100035.98;104247;1284;140002;-78
2022/08/19 00:57:35;;;;;;;12.20;8.90;;;;;;;23.69;63.96;100036.30;104123;1284;95332;-77
2022/08/19 01:00:09;;;;;;;11.40;8.50;;;;;;;23.71;64.21;100040.61;104059;1284;163179;-78
2022/08/19 01:02:43;;;;;;;12.10;8.90;;;;;;;23.74;63.89;100049.69;104180;1283;98426;-78
2022/08/19 01:05:15;;;;;;;13.00;9.20;;;;;;;23.72;63.85;100053.61;104285;1284;108891;-77
2022/08/19 01:07:43;;;;;;;14.70;9.30;;;;;;;23.65;64.17;100053.62;104033;1283;138821;-77
2022/08/19 01:10:15;;;;;;;12.30;8.40;;;;;;;23.61;64.18;100055.14;104186;1284;95604;-78
2022/08/19 01:12:45;;;;;;;12.70;9.00;;;;;;;23.61;64.20;100056.52;104170;1283;140274;-77
2022/08/19 01:15:16;;;;;;;13.40;9.10;;;;;;;23.60;64.26;100057.58;104246;1284;99897;-79
2022/08/19 01:17:45;;;;;;;11.90;8.80;;;;;;;23.60;64.29;100053.77;104013;1284;139679;-77
2022/08/19 01:20:17;;;;;;;13.40;8.60;;;;;;;23.59;64.18;100051.50;103950;1284;95269;-78
2022/08/19 01:22:52;;;;;;;14.30;9.00;;;;;;;23.57;64.37;100053.89;104123;1284;95818;-77
2022/08/19 01:25:26;;;;;;;13.00;8.70;;;;;;;23.57;64.38;100058.00;104295;1284;138978;-78
2022/08/19 01:27:55;;;;;;;14.70;9.50;;;;;;;23.58;64.41;100063.38;104167;1284;98293;-79
2022/08/19 01:30:37;;;;;;;12.80;8.80;;;;;;;23.55;64.47;100058.36;104032;1284;138714;-79
2022/08/19 01:33:11;;;;;;;12.60;8.40;;;;;;;23.51;64.65;100056.46;104197;1285;95287;-78
2022/08/19 01:35:40;;;;;;;12.60;9.00;;;;;;;23.51;64.42;100051.96;104047;1284;95232;-77
2022/08/19 01:38:20;;;;;;;13.50;9.00;;;;;;;23.50;64.64;100052.79;104273;1284;110726;-78
2022/08/19 01:40:48;;;;;;;13.90;9.10;;;;;;;23.50;64.73;100051.09;103991;1284;99773;-78
2022/08/19 01:43:18;;;;;;;13.30;8.80;;;;;;;23.48;64.78;100047.34;103841;1284;140584;-77
2022/08/19 01:45:46;;;;;;;13.90;9.10;;;;;;;23.46;64.78;100046.04;104106;1284;95274;-76
2022/08/19 01:48:14;;;;;;;12.60;8.50;;;;;;;23.46;64.97;100041.65;104118;1284;141243;-77
2022/08/19 01:50:43;;;;;;;13.80;9.00;;;;;;;23.45;64.89;100041.96;104164;1284;110210;-77
2022/08/19 01:53:11;;;;;;;14.70;9.10;;;;;;;23.41;65.14;100042.17;104154;1284;99879;-78
2022/08/19 01:55:41;;;;;;;12.50;8.90;;;;;;;23.39;65.05;100035.23;103976;1284;139662;-79
2022/08/19 01:58:16;;;;;;;14.40;8.70;;;;;;;23.36;65.23;100036.95;103707;1285;95796;-78
2022/08/19 02:00:45;;;;;;;13.20;8.80;;;;;;;23.35;65.30;100034.98;104067;1282;139157;-79
2022/08/19 02:03:13;;;;;;;12.80;8.50;;;;;;;23.31;65.24;100044.58;104158;1284;110701;-80
2022/08/19 02:05:42;;;;;;;11.30;8.40;;;;;;;23.27;65.39;100038.09;104132;1284;98450;-79
2022/08/19 02:08:11;;;;;;;11.90;8.60;;;;;;;23.29;65.53;100033.95;104149;1284;109212;-79
2022/08/19 02:10:43;;;;;;;12.00;8.60;;;;;;;23.27;65.34;100030.85;104114;1284;95542;-78
2022/08/19 02:13:13;;;;;;;14.80;9.00;;;;;;;23.26;65.50;100028.20;103988;1284;140342;-79
2022/08/19 02:15:41;;;;;;;12.90;8.50;;;;;;;23.21;65.78;100024.29;103827;1285;110763;-79
2022/08/19 02:18:09;;;;;;;13.30;8.50;;;;;;;23.21;65.67;100026.02;104003;1284;141669;-77
2022/08/19 02:20:38;;;;;;;13.70;8.80;;;;;;;23.21;65.72;100021.34;104103;1284;109387;-79
2022/08/19 02:23:07;;;;;;;13.50;9.30;;;;;;;23.17;65.81;100024.20;104082;1284;95158;-78
2022/08/19 02:25:47;;;;;;;12.20;8.80;;;;;;;23.12;66.12;100019.59;103995;1284;139061;-79
2022/08/19 02:28:15;;;;;;;11.90;8.60;;;;;;;23.11;66.23;100020.61;104057;1284;110278;-79
2022/08/19 02:30:47;;;;;;;15.30;8.80;;;;;;;23.15;66.18;100020.23;103965;1284;139537;-77
2022/08/19 02:33:16;;;;;;;13.10;9.10;;;;;;;23.14;66.15;100019.10;104105;1284;109243;-79
2022/08/19 02:35:45;;;;;;;15.10;9.90;;;;;;;23.12;66.13;100024.70;104022;1284;140251;-77
2022/08/19 02:38:27;;;;;;;12.60;9.50;;;;;;;23.10;66.04;100021.36;104272;1284;95114;-78
2022/08/19 02:41:02;;;;;;;14.30;8.70;;;;;;;23.10;66.23;100020.27;104142;1284;110182;-78
2022/08/19 02:43:36;;;;;;;12.30;9.50;;;;;;;23.08;66.38;100025.35;104029;1284;140366;-77
2022/08/19 02:46:17;;;;;;;14.10;10.00;;;;;;;23.08;66.26;100027.90;104254;1284;109043;-77
2022/08/19 02:48:45;;;;;;;13.40;10.20;;;;;;;23.07;66.43;100024.16;104332;1284;139279;-77
2022/08/19 02:51:25;;;;;;;13.70;9.90;;;;;;;23.08;66.41;100030.21;104266;1282;95158;-78
2022/08/19 02:53:54;;;;;;;13.60;10.00;;;;;;;23.11;66.17;100027.27;103830;1285;141946;-78
2022/08/19 02:56:24;;;;;;;14.80;9.90;;;;;;;23.11;66.27;100027.09;104233;1284;99906;-77
2022/08/19 02:58:54;;;;;;;15.40;10.30;;;;;;;23.08;66.37;100027.01;104165;1284;107890;-78
2022/08/19 03:01:32;;;;;;;12.90;9.20;;;;;;;23.07;66.41;100031.05;104040;1284;142049;-77
2022/08/19 03:04:03;;;;;;;14.00;10.00;;;;;;;23.11;66.29;100028.01;104191;1284;95246;-78
2022/08/19 03:06:31;;;;;;;14.10;10.30;;;;;;;23.09;66.14;100023.66;104011;1284;138849;-78
2022/08/19 03:08:59;;;;;;;14.20;9.90;;;;;;;23.09;66.20;100021.12;104233;1283;99683;-77
2022/08/19 03:11:29;;;;;;;14.60;10.00;;;;;;;23.06;66.26;100024.95;104198;1284;107930;-78
2022/08/19 03:13:59;;;;;;;14.70;9.60;;;;;;;23.00;66.30;100024.71;104046;1284;139642;-76
2022/08/19 03:16:30;;;;;;;14.50;9.60;;;;;;;23.00;66.22;100021.27;104298;1284;95534;-79
2022/08/19 03:19:01;;;;;;;12.80;10.30;;;;;;;23.00;66.31;100017.16;104106;1284;138708;-78
2022/08/19 03:21:32;;;;;;;14.00;10.10;;;;;;;22.94;66.41;100018.59;104231;1284;100074;-78
2022/08/19 03:24:04;;;;;;;14.20;9.90;;;;;;;22.93;66.57;100017.71;104250;1284;139647;-78
2022/08/19 03:26:32;;;;;;;13.90;9.70;;;;;;;22.96;66.42;100014.55;104211;1284;95801;-78
2022/08/19 03:29:04;;;;;;;12.30;9.40;;;;;;;22.98;66.42;100020.94;104338;1284;95866;-79
2022/08/19 03:31:34;;;;;;;13.50;10.60;;;;;;;22.96;66.37;100030.73;104455;1284;140571;-78
2022/08/19 03:34:27;;;;;;;14.30;10.20;;;;;;;22.90;66.68;100030.98;104393;1284;100027;-79
2022/08/19 03:36:58;;;;;;;11.80;8.80;;;;;;;22.87;66.59;100037.03;104253;1284;139352;-78
2022/08/19 03:39:26;;;;;;;14.70;10.10;;;;;;;22.90;66.79;100035.05;104438;1284;95263;-78
2022/08/19 03:41:59;;;;;;;14.70;10.00;;;;;;;22.88;66.84;100033.16;104276;1284;138833;-77
2022/08/19 03:44:47;;;;;;;15.10;9.70;;;;;;;22.86;66.75;100034.80;104220;1284;110650;-78
2022/08/19 03:47:16;;;;;;;14.90;9.50;;;;;;;22.87;66.72;100039.23;104287;1283;99725;-77
2022/08/19 03:49:45;;;;;;;12.50;9.20;;;;;;;22.93;66.79;100047.13;104211;1283;138696;-77
2022/08/19 03:52:13;;;;;;;15.20;10.10;;;;;;;22.96;66.66;100047.73;104314;1282;95297;-77
2022/08/19 03:54:41;;;;;;;13.70;9.90;;;;;;;22.96;66.59;100049.91;104253;1284;140110;-77
2022/08/19 03:57:10;;;;;;;12.70;9.30;;;;;;;22.93;66.63;100052.90;104344;1284;110298;-80
2022/08/19 03:59:38;;;;;;;13.00;9.80;;;;;;;22.92;66.78;100050.20;104262;1284;99562;-78
2022/08/19 04:02:10;;;;;;;13.30;9.40;;;;;;;22.92;66.74;100051.48;104096;1283;140809;-79
2022/08/19 04:04:42;;;;;;;15.40;9.70;;;;;;;22.92;67.03;100048.04;104064;1284;95238;-79
2022/08/19 04:07:15;;;;;;;14.00;10.20;;;;;;;22.96;66.90;100051.75;104203;1284;139532;-79
2022/08/19 04:09:44;;;;;;;12.70;9.00;;;;;;;23.03;66.81;100045.50;104239;1284;108992;-78
2022/08/19 04:12:12;;;;;;;14.80;10.20;;;;;;;23.06;66.69;100046.55;104148;1284;140592;-78
2022/08/19 04:14:39;;;;;;;13.80;10.10;;;;;;;23.05;66.61;100043.65;104257;1284;108814;-77
2022/08/19 04:17:07;;;;;;;14.20;10.10;;;;;;;23.10;66.59;100041.12;104274;1284;95280;-78
2022/08/19 04:19:35;;;;;;;12.10;9.50;;;;;;;23.12;66.51;100036.77;104181;1284;140664;-77
2022/08/19 04:22:04;;;;;;;12.90;10.00;;;;;;;23.16;66.35;100033.98;104301;1284;108684;-78
2022/08/19 04:24:33;;;;;;;14.10;10.10;;;;;;;23.17;66.54;100033.52;104197;1284;140376;-78
2022/08/19 04:27:02;;;;;;;15.70;10.10;;;;;;;23.19;66.36;100033.48;104337;1284;109398;-80
2022/08/19 04:29:30;;;;;;;14.30;9.50;;;;;;;23.21;66.39;100032.96;104295;1284;95197;-77
2022/08/19 04:31:59;;;;;;;13.20;9.90;;;;;;;23.28;66.08;100039.67;104139;1284;139079;-77
2022/08/19 04:34:36;;;;;;;14.80;10.00;;;;;;;23.34;66.05;100044.40;104106;1285;110245;-78
2022/08/19 04:37:26;;;;;;;14.20;10.60;;;;;;;23.42;66.19;100044.40;104342;1283;141401;-78
2022/08/19 04:42:51;;;;;;;12.10;9.30;;;;;;;23.52;65.44;100043.70;104290;1284;142001;-79
2022/08/19 04:45:20;;;;;;;14.30;9.70;;;;;;;23.57;65.86;100038.98;104320;1284;95645;-78
2022/08/19 04:47:56;;;;;;;13.80;9.90;;;;;;;23.62;65.29;100040.13;104217;1284;140630;-78
2022/08/19 04:50:43;;;;;;;14.40;10.20;;;;;;;23.65;65.21;100040.45;104297;1284;100075;-76
2022/08/19 04:53:11;;;;;;;13.30;9.50;;;;;;;23.69;65.13;100039.40;104185;1284;109649;-79
2022/08/19 04:55:41;;;;;;;14.20;9.80;;;;;;;23.75;64.98;100039.98;104136;1282;139663;-76
2022/08/19 04:58:09;;;;;;;14.40;9.70;;;;;;;23.77;64.82;100038.55;103712;1283;95182;-78
2022/08/19 05:00:39;;;;;;;16.00;10.40;;;;;;;23.80;65.14;100037.66;104236;1284;138667;-77
2022/08/19 05:03:07;;;;;;;15.10;9.50;;;;;;;23.82;65.07;100039.67;104496;1284;99924;-77
2022/08/19 05:05:43;;;;;;;15.00;9.80;;;;;;;23.83;64.29;100037.02;104426;1283;108380;-77
2022/08/19 05:08:13;;;;;;;13.40;10.20;;;;;;;23.83;64.44;100040.45;104933;1283;95782;-78
2022/08/19 05:10:42;;;;;;;14.10;9.60;;;;;;;23.84;64.68;100043.27;104321;1284;95278;-77
2022/08/19 05:13:11;;;;;;;15.40;10.30;;;;;;;23.85;64.77;100046.48;104294;1284;139899;-79
2022/08/19 05:15:38;;;;;;;13.50;9.20;;;;;;;23.85;64.20;100041.95;104268;1284;99903;-77
2022/08/19 05:23:40;;;;;;;14.00;9.60;;;;;;;23.91;64.82;100049.49;104210;1283;95145;-77
2022/08/19 05:26:10;;;;;;;17.20;9.90;;;;;;;23.88;64.37;100050.59;104359;1284;109376;-77
2022/08/19 05:28:38;;;;;;;14.50;9.40;;;;;;;23.89;64.39;100051.23;104231;1284;99856;-79
2022/08/19 05:31:06;;;;;;;13.70;9.90;;;;;;;23.90;64.92;100047.73;104216;1282;140634;-76
2022/08/19 05:33:35;;;;;;;15.10;10.30;;;;;;;23.91;64.76;100045.66;104209;1283;95402;-76
2022/08/19 05:36:03;;;;;;;12.80;9.10;;;;;;;23.94;64.87;100046.45;104104;1283;142133;-77
2022/08/19 05:38:31;;;;;;;14.20;9.80;;;;;;;23.97;64.48;100051.69;104182;1284;108900;-79
2022/08/19 05:40:59;;;;;;;14.90;10.20;;;;;;;24.00;64.37;100059.74;104262;1284;98041;-77
2022/08/19 05:43:27;;;;;;;15.30;10.10;;;;;;;24.04;64.33;100065.15;104223;1282;138797;-77
2022/08/19 05:45:56;;;;;;;14.80;10.50;;;;;;;24.09;64.37;100068.60;105608;1284;95160;-79
2022/08/19 05:48:32;;;;;;;12.40;9.20;;;;;;;24.12;64.18;100066.48;104947;1284;139895;-78
2022/08/19 05:51:18;;;;;;;14.50;9.70;;;;;;;24.15;63.87;100062.95;104046;1283;108500;-76
2022/08/19 05:54:30;;;;;;;13.10;9.70;;;;;;;24.16;64.19;100057.91;104404;1283;138699;-77
2022/08/19 05:57:05;;;;;;;12.50;9.80;;;;;;;24.19;64.32;100056.77;104293;1284;108932;-77
2022/08/19 06:00:14;;;;;;;13.80;9.40;;;;;;;24.26;64.60;100048.88;103918;1283;141770;-80
2022/08/19 06:02:42;;;;;;;13.70;9.10;;;;;;;24.32;64.00;100044.23;104204;1284;96140;-80
2022/08/19 06:05:10;;;;;;;13.70;9.40;;;;;;;24.43;63.99;100040.31;104218;1282;109286;-80
2022/08/19 06:07:39;;;;;;;13.90;9.60;;;;;;;24.54;63.87;100032.58;104047;1284;138960;-82
2022/08/19 06:10:10;;;;;;;14.40;9.60;;;;;;;24.61;63.61;100032.87;103861;1284;108196;-78
2022/08/19 06:12:39;;;;;;;15.30;9.20;;;;;;;24.67;63.38;100035.82;104039;1282;138185;-80
2022/08/19 06:15:13;;;;;;;13.50;8.80;;;;;;;24.71;63.02;100047.61;103998;1283;96577;-78
2022/08/19 06:17:44;;;;;;;14.00;9.50;;;;;;;24.70;62.79;100051.13;104126;1282;110535;-78
2022/08/19 06:20:14;;;;;;;12.90;9.20;;;;;;;24.68;62.63;100055.89;104227;1282;138116;-80
2022/08/19 06:22:45;;;;;;;13.40;9.20;;;;;;;24.64;62.44;100064.95;104144;1284;109374;-77
2022/08/19 06:25:14;;;;;;;13.30;9.30;;;;;;;24.63;62.63;100062.11;104215;1282;141585;-80
2022/08/19 06:27:42;;;;;;;12.40;9.30;;;;;;;24.67;62.95;100063.16;104391;1284;95638;-77
2022/08/19 06:30:30;;;;;;;16.40;11.50;;;;;;;24.76;63.16;100065.17;104225;1283;141017;-77
2022/08/19 06:32:58;;;;;;;13.60;9.30;;;;;;;24.82;62.48;100066.02;104453;1284;100777;-80
2022/08/19 06:35:26;;;;;;;15.00;9.20;;;;;;;24.88;62.16;100070.20;104487;1283;109169;-79
2022/08/19 06:37:54;;;;;;;14.10;8.50;;;;;;;24.95;62.36;100069.27;104436;1283;139188;-79
2022/08/19 06:40:23;;;;;;;14.60;8.90;;;;;;;24.98;61.80;100069.09;104385;1284;96143;-78
2022/08/19 06:42:50;;;;;;;14.10;8.70;;;;;;;25.01;62.05;100069.91;104274;1283;138621;-78
2022/08/19 06:45:23;;;;;;;15.00;8.60;;;;;;;25.01;62.23;100066.45;104400;1284;99102;-79
2022/08/19 06:48:02;;;;;;;13.80;8.80;;;;;;;25.01;62.07;100063.73;104361;1284;139405;-79
2022/08/19 06:50:30;;;;;;;13.90;8.30;;;;;;;24.98;61.76;100064.20;104451;1282;95772;-79
2022/08/19 06:52:58;;;;;;;13.30;8.50;;;;;;;25.03;61.75;100067.20;104372;1282;95766;-78
2022/08/19 06:55:31;;;;;;;12.90;8.50;;;;;;;25.17;61.69;100060.06;104375;1283;139524;-79
2022/08/19 06:58:04;;;;;;;13.40;8.00;;;;;;;25.32;62.28;100061.42;104387;1282;98419;-79
2022/08/19 07:00:32;;;;;;;62.30;50.10;;;;;;;25.39;61.23;100062.30;104423;1284;140197;-78
2022/08/19 07:03:00;;;;;;;13.40;8.80;;;;;;;25.47;60.78;100064.75;104516;1283;95247;-78
2022/08/19 07:05:40;;;;;;;13.00;8.30;;;;;;;25.58;60.67;100067.70;104418;1284;95283;-80
2022/08/19 07:08:13;;;;;;;12.40;8.20;;;;;;;25.71;60.41;100073.45;104429;1284;139947;-79
2022/08/19 07:10:45;;;;;;;13.30;8.00;;;;;;;25.79;60.51;100072.55;104403;1283;98336;-81
2022/08/19 07:13:13;;;;;;;14.50;8.20;;;;;;;25.90;60.31;100071.48;104240;1284;139087;-80
2022/08/19 07:15:41;;;;;;;12.80;8.40;;;;;;;26.00;60.66;100073.61;104407;1284;95165;-77
2022/08/19 07:18:09;;;;;;;12.50;8.40;;;;;;;26.07;59.62;100074.87;104255;1283;139824;-78
2022/08/19 07:20:40;;;;;;;13.60;8.60;;;;;;;26.18;60.53;100068.60;104537;1284;110214;-83
2022/08/19 07:23:09;;;;;;;14.80;8.80;;;;;;;26.30;60.52;100060.30;104592;1284;99351;-81
2022/08/19 07:25:43;;;;;;;12.00;7.50;;;;;;;26.41;60.61;100054.89;104390;1284;138923;-80
2022/08/19 07:28:20;;;;;;;10.20;7.70;;;;;;;26.52;59.68;100054.89;104343;1284;95900;-78
2022/08/19 07:30:52;;;;;;;9.90;6.90;;;;;;;26.64;59.74;100052.48;104234;1284;138689;-79
2022/08/19 07:33:22;;;;;;;12.30;8.00;;;;;;;26.75;57.98;100047.92;104867;1282;110733;-80
2022/08/19 07:35:49;;;;;;;11.80;7.60;;;;;;;26.81;57.25;100048.42;104237;1282;139759;-77
2022/08/19 07:38:17;;;;;;;12.10;7.50;;;;;;;26.83;57.13;100046.39;104349;1284;109332;-78
2022/08/19 07:40:45;;;;;;;11.50;7.60;;;;;;;26.88;57.57;100045.29;104445;1282;95254;-80
2022/08/19 07:43:15;;;;;;;11.50;8.10;;;;;;;26.97;57.14;100048.62;104259;1284;141706;-78
2022/08/19 07:45:45;;;;;;;10.40;7.40;;;;;;;27.04;56.90;100050.80;104592;1282;110731;-79
2022/08/19 07:48:14;;;;;;;13.20;7.90;;;;;;;27.13;57.08;100052.33;104313;1284;139273;-79
2022/08/19 07:50:42;;;;;;;12.90;8.00;;;;;;;27.18;57.21;100049.71;104443;1283;108802;-81
2022/08/19 07:53:12;;;;;;;12.50;8.60;;;;;;;27.23;57.27;100052.77;104394;1282;95281;-78
2022/08/19 07:55:41;;;;;;;11.30;8.00;;;;;;;27.25;56.79;100053.33;104375;1284;141372;-78
2022/08/19 07:58:14;;;;;;;10.50;7.60;;;;;;;27.22;56.57;100049.71;104430;1283;110331;-79
2022/08/19 08:00:44;;;;;;;12.20;7.50;;;;;;;27.24;57.05;100043.30;104770;1283;140776;-78
2022/08/19 08:03:14;;;;;;;11.30;8.10;;;;;;;27.29;56.67;100047.20;104513;1282;109378;-79
2022/08/19 08:11:19;;;;;;;12.80;7.90;;;;;;;27.47;56.75;100042.09;104431;1284;109991;-78
2022/08/19 08:13:49;;;;;;;14.70;8.70;;;;;;;27.55;56.58;100042.15;104325;1284;140904;-78
2022/08/19 08:16:37;;;;;;;11.00;7.90;;;;;;;27.68;56.87;100047.81;104433;1282;109596;-77
2022/08/19 08:19:07;;;;;;;11.20;7.90;;;;;;;27.78;56.58;100050.34;104306;1282;140940;-79
2022/08/19 08:21:57;;;;;;;12.40;8.70;;;;;;;27.90;55.81;100053.50;104321;1282;95067;-78
2022/08/19 08:24:28;;;;;;;11.60;8.00;;;;;;;28.03;56.58;100054.76;104347;1282;139452;-78
2022/08/19 08:27:00;;;;;;;11.20;8.40;;;;;;;28.16;55.58;100056.79;104279;1284;99739;-78
2022/08/19 08:29:30;;;;;;;13.40;8.30;;;;;;;28.30;55.91;100057.33;104480;1282;109394;-77
2022/08/19 08:32:03;;;;;;;10.60;7.60;;;;;;;28.41;55.53;100054.42;104445;1284;141046;-79
2022/08/19 08:34:42;;;;;;;13.00;8.00;;;;;;;28.50;54.58;100053.74;104605;1283;95283;-79
2022/08/19 08:37:10;;;;;;;11.50;8.30;;;;;;;28.60;55.54;100047.80;104658;1283;140200;-77
2022/08/19 08:39:38;;;;;;;12.50;8.30;;;;;;;28.73;54.68;100047.83;104558;1284;98224;-80
2022/08/19 08:42:18;;;;;;;16.70;13.30;;;;;;;28.83;54.14;100047.44;104330;1284;141603;-77
2022/08/19 08:44:57;;;;;;;11.80;7.80;;;;;;;28.98;54.72;100046.27;104348;1284;95674;-78
2022/08/19 08:47:37;;;;;;;12.40;7.90;;;;;;;29.16;54.31;100050.02;104442;1284;95670;-80
2022/08/19 08:50:18;;;;;;;11.70;8.60;;;;;;;29.28;53.30;100058.08;104372;1282;138358;-78
2022/08/19 08:52:50;;;;;;;11.80;8.20;;;;;;;29.32;53.30;100061.30;104374;1282;100809;-78
2022/08/19 08:55:23;;;;;;;11.10;7.90;;;;;;;29.41;53.08;100069.33;104170;1284;140244;-79
2022/08/19 08:57:58;;;;;;;10.10;7.90;;;;;;;29.46;52.70;100072.27;104324;1284;95316;-80
2022/08/19 09:00:33;;;;;;;12.00;8.30;;;;;;;29.55;53.02;100067.20;104249;1282;139237;-83
2022/08/19 09:03:03;;;;;;;10.70;7.40;;;;;;;29.73;52.97;100060.45;104463;1284;110454;-79
2022/08/19 09:05:48;;;;;;;10.80;7.40;;;;;;;29.79;52.17;100060.41;104381;1282;99912;-79
2022/08/19 09:08:37;;;;;;;11.60;7.40;;;;;;;29.92;51.74;100063.64;104481;1283;108965;-79
2022/08/19 09:11:14;;;;;;;11.50;7.60;;;;;;;29.97;51.19;100065.25;104396;1284;95908;-78
2022/08/19 09:14:29;;;;;;;9.80;6.80;;;;;;;29.98;50.64;100064.08;104388;1284;139161;-76
2022/08/19 09:17:19;;;;;;;8.60;6.50;;;;;;;30.11;48.86;100066.92;104379;1284;108805;-78
2022/08/19 09:20:07;;;;;;;10.20;6.60;;;;;;;30.25;48.92;100066.30;106506;1284;139971;-78
2022/08/19 09:22:38;;;;;;;9.90;6.60;;;;;;;30.49;47.68;100064.89;105833;1282;108040;-81
2022/08/19 09:25:08;;;;;;;9.40;6.20;;;;;;;30.93;47.29;100070.40;104363;1284;139831;-81
2022/08/19 09:27:38;;;;;;;10.40;6.70;;;;;;;31.91;45.09;100071.34;104213;1284;95170;-77
2022/08/19 09:30:15;;;;;;;8.70;5.90;;;;;;;33.11;42.57;100075.96;104078;1284;140070;-78
2022/08/19 09:32:45;;;;;;;10.80;6.10;;;;;;;33.94;39.38;100080.95;104601;1284;99965;-80
2022/08/19 09:35:13;;;;;;;11.20;6.00;;;;;;;34.51;38.16;100089.15;104347;1284;107768;-79
2022/08/19 09:37:43;;;;;;;9.70;6.20;;;;;;;35.00;37.25;100082.02;104153;1284;140270;-80
2022/08/19 09:40:12;;;;;;;9.10;6.40;;;;;;;35.67;37.24;100076.90;104559;1282;95586;-80
2022/08/19 09:42:41;;;;;;;25.80;21.80;;;;;;;36.66;36.59;100074.66;104345;1283;138289;-81
2022/08/19 09:45:21;;;;;;;12.40;6.00;;;;;;;37.46;34.67;100080.08;104473;1284;101688;-79
2022/08/19 09:47:51;;;;;;;9.00;5.90;;;;;;;37.87;33.29;100081.47;104503;1284;107844;-82
2022/08/19 09:50:23;;;;;;;9.80;5.50;;;;;;;38.23;32.88;100089.98;104313;1282;95165;-79
2022/08/19 09:52:52;;;;;;;8.70;5.50;;;;;;;38.37;31.87;100086.33;104570;1284;96591;-82
2022/08/19 09:55:25;;;;;;;7.90;5.80;;;;;;;38.52;31.86;100084.84;104362;1284;139746;-82
2022/08/19 09:58:02;;;;;;;11.50;6.10;;;;;;;38.89;31.91;100079.56;104459;1284;98320;-80
2022/08/19 10:00:31;;;;;;;9.30;5.60;;;;;;;39.12;30.54;100071.60;104263;1284;139816;-83
2022/08/19 10:02:59;;;;;;;10.40;5.30;;;;;;;39.28;30.81;100072.84;103530;1284;1578376;-83
2022/08/19 10:08:22;;;;;;;11.90;5.60;;;;;;;40.27;29.57;100064.05;104679;1284;110631;-87
2022/08/19 10:10:54;;;;;;;8.90;5.50;;;;;;;40.63;28.91;100063.71;104578;1284;99466;-79
2022/08/19 10:13:26;;;;;;;9.40;5.20;;;;;;;40.80;27.69;100063.83;104304;1283;140028;-80
2022/08/19 10:15:57;;;;;;;11.00;5.20;;;;;;;40.89;28.26;100064.96;104320;1284;95289;-80
2022/08/19 10:18:25;;;;;;;9.20;5.40;;;;;;;41.36;27.89;100060.46;104281;1284;138900;-82
2022/08/19 10:21:08;;;;;;;8.40;5.20;;;;;;;41.68;27.75;100055.75;104290;1284;110286;-78
2022/08/19 10:23:43;;;;;;;7.60;4.80;;;;;;;42.15;26.81;100056.68;104433;1284;99070;-78
2022/08/19 10:26:20;;;;;;;9.60;5.10;;;;;;;42.15;25.96;100052.88;104573;1281;138738;-78
2022/08/19 10:28:49;;;;;;;8.80;5.10;;;;;;;42.22;26.24;100053.61;104324;1284;95217;-79
2022/08/19 10:31:20;;;;;;;9.20;4.90;;;;;;;42.03;25.55;100054.23;104665;1283;140152;-79
2022/08/19 10:34:08;;;;;;;9.10;5.20;;;;;;;42.02;25.37;100055.05;104865;1283;109718;-81
2022/08/19 10:36:54;;;;;;;8.20;4.80;;;;;;;42.00;25.85;100049.37;104788;1284;139971;-83
2022/08/19 10:39:30;;;;;;;9.00;4.60;;;;;;;42.27;26.04;100053.55;104820;1283;109379;-82
2022/08/19 10:42:12;;;;;;;9.70;5.10;;;;;;;42.17;25.42;100048.49;104535;1284;139954;-79
2022/08/19 10:44:41;;;;;;;8.50;4.80;;;;;;;42.18;24.99;100053.04;104500;1284;95464;-80
2022/08/19 10:47:10;;;;;;;12.40;8.60;;;;;;;41.89;24.89;100057.21;104519;1284;110203;-79
2022/08/19 10:52:42;;;;;;;8.70;4.80;;;;;;;42.17;24.94;100049.27;104550;1282;108977;-81
2022/08/19 10:58:12;;;;;;;8.50;5.30;;;;;;;41.71;24.51;100044.98;104255;1282;95264;-78
2022/08/19 11:00:40;;;;;;;9.60;5.20;;;;;;;40.47;26.46;100048.89;104197;1282;140856;-80
2022/08/19 11:03:08;;;;;;;7.80;5.20;;;;;;;39.55;27.10;100050.05;104404;1284;99941;-81
2022/08/19 11:05:37;;;;;;;9.30;5.60;;;;;;;38.43;28.12;100046.20;104485;1284;109511;-80
2022/08/19 11:08:11;;;;;;;9.30;5.50;;;;;;;37.61;29.76;100047.05;104197;1284;140282;-81
2022/08/19 11:10:55;;;;;;;9.80;5.80;;;;;;;36.89;30.77;100039.64;104409;1283;95264;-79
2022/08/19 11:13:23;;;;;;;8.70;5.20;;;;;;;36.32;31.53;100037.95;104425;1283;139464;-79
2022/08/19 11:16:00;;;;;;;8.70;5.70;;;;;;;35.65;32.27;100038.54;104405;1284;100984;-76
2022/08/19 11:18:36;;;;;;;10.60;6.10;;;;;;;35.05;33.52;100034.95;104322;1282;138889;-78
2022/08/19 11:21:10;;;;;;;10.60;6.30;;;;;;;34.76;34.59;100028.09;104384;1283;95270;-80
2022/08/19 11:23:39;;;;;;;10.30;6.40;;;;;;;34.55;34.74;100029.68;104606;1284;95190;-83
2022/08/19 11:26:07;;;;;;;11.00;6.30;;;;;;;34.30;35.24;100025.27;104226;1284;140003;-85
2022/08/19 11:28:36;;;;;;;9.80;6.20;;;;;;;34.06;35.86;100026.16;104331;1284;99998;-85
2022/08/19 11:31:09;;;;;;;9.90;6.80;;;;;;;33.83;36.75;100024.98;104161;1283;138986;-84
2022/08/19 11:33:37;;;;;;;8.60;6.30;;;;;;;33.76;37.53;100017.33;104444;1284;95252;-82
2022/08/19 11:36:05;;;;;;;11.60;6.70;;;;;;;33.67;37.97;100015.80;104306;1283;138894;-85
2022/08/19 11:38:34;;;;;;;10.10;6.70;;;;;;;33.54;38.52;100011.80;104583;1283;110816;-83
2022/08/19 11:41:05;;;;;;;10.80;6.40;;;;;;;33.42;38.17;100014.08;104320;1283;100223;-83
2022/08/19 11:43:34;;;;;;;12.10;7.00;;;;;;;33.30;38.74;100012.62;104332;1283;138836;-84
2022/08/19 11:46:06;;;;;;;9.90;6.60;;;;;;;33.23;38.38;100007.66;104449;1284;95679;-84
2022/08/19 11:48:35;;;;;;;10.70;6.20;;;;;;;33.19;39.23;100005.42;104168;1284;138974;-82
2022/08/19 11:51:09;;;;;;;10.70;5.90;;;;;;;33.09;38.55;100001.46;104206;1283;110611;-80